Time;durP1;ratioP1;P1;durP2;ratioP2;P2;SDS_P1;SDS_P2;PMS_P1;PMS_P2;Temp;Humidity;BMP_temperature;BMP_pressure;BME280_temperature;BME280_humidity;BME280_pressure;Samples;Min_cycle;Max_cycle;Signal;HPM_P1;HPM_P2
2022/07/31 06:54:38;;;;;;;10.43;2.53;;;;;;;19.81;52.18;96841.25;2101480;27;20754;-68
2022/07/31 06:55:40;;;;;;;4.53;2.17;;;;;;;19.47;52.80;96833.31;2090896;28;20250;-67
2022/07/31 06:56:45;;;;;;;7.13;2.85;;;;;;;19.77;52.15;96837.16;2090724;28;20203;-68
2022/07/31 06:57:46;;;;;;;8.48;2.25;;;;;;;19.52;52.68;96828.50;2066877;28;20232;-67
2022/07/31 06:58:48;;;;;;;6.60;2.60;;;;;;;19.55;52.58;96837.03;2068452;28;20189;-67
2022/07/31 06:59:49;;;;;;;4.50;2.15;;;;;;;19.68;52.41;96836.94;2060934;28;20242;-68
2022/07/31 07:00:51;;;;;;;7.40;2.97;;;;;;;19.92;52.03;96840.44;2061667;28;20206;-70
2022/07/31 07:01:52;;;;;;;3.95;2.00;;;;;;;19.80;51.96;96843.03;2067331;28;20225;-68
2022/07/31 07:02:54;;;;;;;4.43;2.10;;;;;;;19.92;51.75;96840.44;2067953;28;20206;-69
2022/07/31 07:03:55;;;;;;;6.40;1.80;;;;;;;19.93;51.59;96839.47;2067583;28;20203;-69
2022/07/31 07:25:20;;;;;;;10.02;2.40;;;;;;;21.49;47.95;96821.34;2099086;27;20566;-68
2022/07/31 07:26:22;;;;;;;7.03;2.50;;;;;;;21.70;47.42;96824.00;2094660;28;20203;-68
2022/07/31 07:27:24;;;;;;;4.70;2.20;;;;;;;21.79;47.44;96817.03;2093233;28;20656;-69
2022/07/31 07:28:26;;;;;;;4.85;2.30;;;;;;;22.07;46.72;96826.06;2093295;28;20773;-68
2022/07/31 07:29:31;;;;;;;4.90;2.30;;;;;;;22.18;46.78;96822.44;2076563;28;20193;-68
2022/07/31 07:30:33;;;;;;;3.05;1.92;;;;;;;22.38;46.57;96827.81;2086264;28;20597;-68
2022/07/31 07:31:35;;;;;;;6.30;2.40;;;;;;;22.31;45.65;96831.00;2078023;28;20216;-69
2022/07/31 07:32:36;;;;;;;3.35;1.90;;;;;;;22.39;45.78;96826.84;2071281;28;20237;-68
2022/07/31 07:33:37;;;;;;;8.18;2.00;;;;;;;22.60;45.92;96827.56;2070422;28;20198;-70
2022/07/31 07:34:42;;;;;;;4.53;2.00;;;;;;;22.80;45.27;96825.75;2070162;28;20190;-69
2022/07/31 07:35:43;;;;;;;5.25;2.10;;;;;;;22.95;45.06;96827.97;2069792;28;20229;-68
2022/07/31 07:36:45;;;;;;;6.75;1.75;;;;;;;23.34;44.49;96835.94;2070331;28;20202;-69
2022/07/31 07:37:47;;;;;;;3.42;1.90;;;;;;;23.31;44.36;96838.88;2069931;28;20237;-69
2022/07/31 07:38:49;;;;;;;6.35;1.95;;;;;;;23.24;43.27;96827.97;2070399;28;20555;-69
2022/07/31 07:39:50;;;;;;;5.85;1.90;;;;;;;23.29;40.68;96833.69;2070364;28;20201;-69
2022/07/31 07:40:52;;;;;;;7.13;1.65;;;;;;;23.23;43.06;96834.25;2069685;28;20797;-69
2022/07/31 07:41:53;;;;;;;4.03;1.90;;;;;;;23.26;42.87;96834.00;2069316;28;20210;-69
2022/07/31 07:42:54;;;;;;;10.90;2.45;;;;;;;23.15;42.92;96837.66;2070456;28;20201;-69
2022/07/31 07:44:05;;;;;;;6.13;1.85;;;;;;;23.18;41.55;96825.88;2069724;28;20194;-69
2022/07/31 07:45:07;;;;;;;2.90;1.55;;;;;;;23.20;41.64;96829.22;2069760;28;20217;-69
2022/07/31 07:46:09;;;;;;;5.70;1.80;;;;;;;23.13;42.98;96830.75;2070274;28;20645;-69
2022/07/31 07:47:12;;;;;;;2.78;1.70;;;;;;;23.14;41.93;96819.13;2069909;28;20202;-69
2022/07/31 08:07:48;;;;;;;4.00;1.30;;;;;;;23.89;37.57;96821.00;2090994;27;20567;-67
2022/07/31 08:08:49;;;;;;;3.00;1.33;;;;;;;23.99;37.78;96826.34;2089059;28;20746;-68
2022/07/31 08:09:50;;;;;;;3.28;1.50;;;;;;;23.98;36.63;96825.47;2091759;28;20203;-68
2022/07/31 08:10:52;;;;;;;4.50;1.60;;;;;;;23.96;37.28;96822.97;2092543;28;20198;-68
2022/07/31 08:11:53;;;;;;;5.95;1.50;;;;;;;24.00;37.27;96822.66;2091983;28;20211;-68
2022/07/31 08:12:56;;;;;;;5.15;1.80;;;;;;;24.11;37.62;96827.78;2088256;28;20188;-68
2022/07/31 08:13:57;;;;;;;3.60;1.73;;;;;;;24.19;37.41;96805.69;2086293;28;20189;-67
2022/07/31 08:14:59;;;;;;;4.60;1.33;;;;;;;24.25;37.21;96827.31;2089522;28;20203;-67
2022/07/31 08:16:00;;;;;;;3.97;1.48;;;;;;;24.36;37.06;96818.22;2090399;28;20203;-67
2022/07/31 08:17:02;;;;;;;5.15;1.95;;;;;;;24.62;36.79;96822.84;2091758;28;20302;-67
2022/07/31 08:18:03;;;;;;;6.13;1.67;;;;;;;24.75;36.05;96827.81;2091815;28;20673;-67
2022/07/31 08:19:05;;;;;;;4.50;1.20;;;;;;;24.89;36.18;96823.78;2088962;28;20254;-67
2022/07/31 08:35:11;;;;;;;2.10;1.10;;;;;;;25.90;35.27;96809.03;2085740;28;20562;-68
2022/07/31 08:36:12;;;;;;;1.75;1.02;;;;;;;25.92;35.07;96818.56;2086565;28;20203;-69
2022/07/31 08:37:17;;;;;;;3.10;1.10;;;;;;;26.07;35.07;96810.81;2082603;28;20217;-67
2022/07/31 08:38:39;;;;;;;4.95;1.50;;;;;;;26.38;34.87;96815.56;2067886;28;20214;-67
2022/07/31 08:39:40;;;;;;;6.13;1.35;;;;;;;26.58;34.56;96809.94;2070614;28;20198;-68
2022/07/31 08:40:42;;;;;;;5.95;1.38;;;;;;;26.98;34.19;96813.66;2072116;28;20493;-67
2022/07/31 08:41:44;;;;;;;2.47;1.38;;;;;;;26.97;33.66;96809.31;2072735;28;20194;-66
2022/07/31 08:42:46;;;;;;;3.38;1.55;;;;;;;26.79;34.04;96811.31;2071901;28;20677;-66
2022/07/31 08:43:47;;;;;;;1.90;1.17;;;;;;;26.38;34.24;96810.22;2072633;28;20676;-67
2022/07/31 08:45:06;;;;;;;3.67;1.35;;;;;;;26.34;34.94;96810.72;2070537;28;20224;-66
2022/07/31 08:46:09;;;;;;;4.50;2.58;;;;;;;26.20;34.99;96810.34;2069663;28;20208;-66
2022/07/31 08:47:13;;;;;;;5.43;1.00;;;;;;;26.10;35.10;96798.94;2070238;28;20269;-66
2022/07/31 08:48:15;;;;;;;4.93;1.10;;;;;;;25.68;35.20;96781.03;2070433;28;20201;-66
2022/07/31 08:49:18;;;;;;;2.40;1.23;;;;;;;25.57;35.93;96809.75;2072091;28;20189;-65
2022/07/31 08:50:20;;;;;;;1.90;1.00;;;;;;;25.56;36.27;96799.19;2071418;28;20277;-65
2022/07/31 08:51:25;;;;;;;2.10;1.10;;;;;;;25.99;35.35;96807.22;2070711;28;20236;-65
2022/07/31 08:52:31;;;;;;;3.50;1.00;;;;;;;26.03;35.14;96808.56;2070415;28;20689;-66
2022/07/31 08:53:36;;;;;;;1.52;0.82;;;;;;;26.10;35.32;96804.28;2070603;28;20208;-66
2022/07/31 08:54:42;;;;;;;2.47;1.02;;;;;;;26.59;34.84;96808.06;2070446;28;20224;-66
2022/07/31 08:55:44;;;;;;;1.70;1.10;;;;;;;27.01;34.18;96807.97;2070446;28;20215;-66
2022/07/31 08:56:58;;;;;;;12.70;1.05;;;;;;;27.43;33.72;96805.28;2069756;28;20284;-66
2022/07/31 08:57:59;;;;;;;2.97;1.00;;;;;;;27.60;32.83;96806.06;2070467;28;20197;-66
2022/07/31 08:59:05;;;;;;;4.22;0.90;;;;;;;27.89;33.01;96796.56;2069922;28;20194;-65
2022/07/31 09:00:11;;;;;;;2.63;1.60;;;;;;;27.94;32.98;96811.13;2069926;28;20193;-66
2022/07/31 09:01:13;;;;;;;9.55;1.45;;;;;;;27.80;32.69;96811.88;2070444;28;20201;-66
2022/07/31 09:02:15;;;;;;;2.80;1.10;;;;;;;27.86;32.91;96803.13;2070076;28;20225;-66
2022/07/31 09:03:17;;;;;;;4.53;1.05;;;;;;;28.05;32.59;96793.00;2070374;28;20209;-66
2022/07/31 09:04:18;;;;;;;6.95;1.58;;;;;;;28.28;31.92;96806.47;2070510;28;20197;-66
2022/07/31 09:05:20;;;;;;;4.45;1.30;;;;;;;28.16;32.30;96804.19;2070427;28;20214;-66
2022/07/31 09:06:22;;;;;;;3.90;1.00;;;;;;;28.44;32.13;96805.53;2069531;28;20193;-66
2022/07/31 09:07:23;;;;;;;2.05;0.98;;;;;;;28.33;32.47;96802.25;2070006;28;20226;-67
2022/07/31 09:08:24;;;;;;;2.70;1.30;;;;;;;28.23;32.43;96800.81;2070070;28;20230;-67
2022/07/31 09:09:27;;;;;;;6.25;0.93;;;;;;;28.22;32.01;96797.28;2069466;28;20205;-68
2022/07/31 09:11:00;;;;;;;3.05;1.10;;;;;;;28.07;32.52;96793.66;2068958;28;20213;-66
2022/07/31 09:12:03;;;;;;;3.03;1.30;;;;;;;28.55;32.05;96799.75;2068833;28;20204;-66
2022/07/31 09:13:15;;;;;;;1.70;1.05;;;;;;;29.01;31.63;96798.91;2077897;28;20751;-66
2022/07/31 09:14:32;;;;;;;1.48;1.00;;;;;;;28.49;31.75;96798.63;2076029;28;20205;-66
2022/07/31 09:15:33;;;;;;;2.33;0.80;;;;;;;28.45;32.09;96799.16;2069664;28;20692;-66
2022/07/31 09:16:49;;;;;;;23.17;2.85;;;;;;;28.62;32.02;96799.88;2070221;28;20198;-67
2022/07/31 09:17:51;;;;;;;4.80;1.02;;;;;;;29.06;31.40;96785.78;2068817;28;20244;-67
2022/07/31 09:19:00;;;;;;;2.45;0.95;;;;;;;29.38;30.74;96794.59;2070124;28;20546;-68
2022/07/31 09:20:04;;;;;;;2.65;1.33;;;;;;;29.11;30.54;96769.13;2070215;28;20205;-68
2022/07/31 09:21:06;;;;;;;8.27;5.40;;;;;;;29.24;30.76;96793.53;2069439;28;20220;-69
2022/07/31 09:22:25;;;;;;;3.92;2.10;;;;;;;29.06;31.02;96791.16;2069374;28;20205;-68
2022/07/31 09:23:28;;;;;;;2.72;1.45;;;;;;;29.08;30.67;96794.50;2070118;28;20193;-68
2022/07/31 09:24:32;;;;;;;3.35;1.30;;;;;;;29.27;30.83;96779.69;2069991;28;20360;-68
2022/07/31 09:25:55;;;;;;;3.28;0.70;;;;;;;29.33;30.38;96786.22;2069311;28;20251;-69
2022/07/31 09:27:04;;;;;;;2.55;0.88;;;;;;;29.55;30.25;96789.88;2068455;28;20205;-68
2022/07/31 09:28:06;;;;;;;1.55;0.70;;;;;;;29.92;29.91;96789.97;2070277;28;20198;-68
2022/07/31 09:29:10;;;;;;;2.67;0.90;;;;;;;30.08;29.81;96791.59;2070473;28;20185;-68
2022/07/31 09:30:12;;;;;;;5.22;1.17;;;;;;;30.15;29.58;96792.53;2068668;28;20308;-67
2022/07/31 09:31:14;;;;;;;4.65;1.17;;;;;;;30.45;29.15;96787.88;2069553;28;20527;-65
2022/07/31 09:32:19;;;;;;;2.00;1.10;;;;;;;30.98;28.67;96791.31;2069608;28;20222;-67
2022/07/31 09:33:21;;;;;;;6.38;0.90;;;;;;;31.19;28.75;96794.00;2069225;28;20618;-67
2022/07/31 09:34:26;;;;;;;1.70;1.10;;;;;;;30.74;29.16;96787.97;2069306;28;20226;-66
2022/07/31 09:35:38;;;;;;;3.47;1.27;;;;;;;30.51;29.49;96801.66;2068299;28;20466;-67
2022/07/31 09:36:42;;;;;;;6.57;1.10;;;;;;;30.09;29.88;96790.59;2069286;28;20560;-67
2022/07/31 09:37:46;;;;;;;1.97;1.20;;;;;;;29.62;29.95;96795.31;2068662;28;20665;-67
2022/07/31 09:38:47;;;;;;;1.60;0.90;;;;;;;29.63;30.51;96797.00;2069618;28;20435;-67
2022/07/31 09:39:54;;;;;;;2.57;0.90;;;;;;;29.30;30.83;96797.34;2070288;28;20950;-68
2022/07/31 09:41:10;;;;;;;4.25;1.23;;;;;;;29.62;30.61;96798.88;2070167;28;20457;-67
2022/07/31 09:42:42;;;;;;;2.63;1.03;;;;;;;29.88;29.88;96789.50;2069445;28;20300;-67
2022/07/31 09:44:01;;;;;;;1.67;1.00;;;;;;;29.45;30.75;96792.81;2076383;28;20433;-66
2022/07/31 09:45:21;;;;;;;2.55;1.20;;;;;;;29.14;30.78;96804.53;2077279;28;20667;-66
2022/07/31 09:46:22;;;;;;;2.55;1.00;;;;;;;29.23;31.38;96788.31;2070467;28;20198;-67
2022/07/31 09:47:29;;;;;;;6.03;1.20;;;;;;;29.16;30.90;96780.16;2064205;28;20224;-67
2022/07/31 09:48:31;;;;;;;3.37;0.90;;;;;;;29.03;31.11;96788.84;2063917;28;20213;-67
2022/07/31 09:49:34;;;;;;;1.40;0.80;;;;;;;28.94;31.24;96777.31;2064613;28;20435;-67
2022/07/31 09:50:35;;;;;;;2.35;1.10;;;;;;;28.91;31.10;96779.53;2064556;28;20681;-67
2022/07/31 09:51:41;;;;;;;1.67;1.00;;;;;;;29.46;30.74;96789.13;2063800;28;20194;-67
2022/07/31 09:52:43;;;;;;;1.60;0.90;;;;;;;29.30;30.66;96776.66;2062886;28;20452;-68
2022/07/31 09:53:56;;;;;;;3.30;1.03;;;;;;;29.80;29.95;96778.81;2055676;28;20458;-68
2022/07/31 09:55:04;;;;;;;1.90;1.05;;;;;;;29.43;30.84;96780.56;2065828;28;20592;-70
2022/07/31 09:56:16;;;;;;;4.40;0.90;;;;;;;29.12;31.28;96786.91;2068712;28;20213;-69
2022/07/31 09:57:18;;;;;;;2.10;1.00;;;;;;;28.95;31.31;96779.00;2064159;28;20459;-69
2022/07/31 09:58:21;;;;;;;2.95;1.10;;;;;;;29.34;30.75;96787.06;2063467;28;20210;-69
2022/07/31 09:59:25;;;;;;;2.70;1.45;;;;;;;29.34;30.90;96782.50;2064772;28;20198;-70
2022/07/31 10:00:27;;;;;;;2.78;1.15;;;;;;;29.70;30.33;96773.72;2063837;28;20709;-69
2022/07/31 10:01:30;;;;;;;1.98;0.93;;;;;;;30.40;29.60;96778.72;2064258;28;20203;-69
2022/07/31 10:02:34;;;;;;;2.00;0.90;;;;;;;30.30;29.33;96771.78;2063313;28;20226;-69
2022/07/31 10:03:37;;;;;;;2.92;1.52;;;;;;;30.05;29.53;96773.16;2064018;28;20199;-69
2022/07/31 10:04:40;;;;;;;7.90;1.70;;;;;;;30.18;29.36;96770.59;2063707;28;20194;-69
2022/07/31 10:05:42;;;;;;;3.20;1.10;;;;;;;29.71;30.07;96771.84;2064034;28;20428;-69
2022/07/31 10:06:49;;;;;;;3.93;0.90;;;;;;;29.42;30.58;96771.69;2064112;28;20443;-69
2022/07/31 10:07:54;;;;;;;2.38;0.90;;;;;;;29.91;30.00;96772.97;2063000;28;20929;-70
2022/07/31 10:08:58;;;;;;;2.13;1.17;;;;;;;30.16;30.05;96766.44;2063979;28;20213;-69
2022/07/31 10:10:02;;;;;;;2.63;1.10;;;;;;;30.19;29.50;96758.00;2064280;28;20432;-69
2022/07/31 10:11:04;;;;;;;2.73;1.30;;;;;;;30.40;29.21;96767.97;2063593;28;20439;-69
2022/07/31 10:12:18;;;;;;;3.50;1.30;;;;;;;30.62;28.94;96764.25;2063146;28;20428;-70
2022/07/31 10:13:21;;;;;;;2.73;1.00;;;;;;;30.23;29.82;96765.50;2063851;28;20423;-67
2022/07/31 10:14:39;;;;;;;2.13;0.90;;;;;;;30.73;29.10;96771.00;2063706;28;20428;-67
2022/07/31 10:15:44;;;;;;;2.40;1.10;;;;;;;30.70;29.29;96771.41;2064227;28;20579;-68
2022/07/31 10:16:47;;;;;;;2.77;1.30;;;;;;;29.95;29.81;96768.91;2063840;28;20424;-68
2022/07/31 10:17:50;;;;;;;8.63;0.90;;;;;;;29.70;30.33;96764.81;2064018;28;20470;-68
2022/07/31 10:18:58;;;;;;;12.80;1.60;;;;;;;30.29;29.21;96740.47;2066406;28;21143;-68
2022/07/31 10:20:02;;;;;;;3.07;1.00;;;;;;;31.14;29.12;96777.59;2064105;28;20900;-69
2022/07/31 10:21:05;;;;;;;2.10;1.00;;;;;;;31.65;27.69;96767.56;2063563;28;20428;-68
2022/07/31 10:22:10;;;;;;;1.97;1.40;;;;;;;31.38;28.18;96770.91;2063991;28;20431;-68
2022/07/31 10:23:21;;;;;;;2.03;1.17;;;;;;;31.23;27.73;96770.19;2064044;28;20571;-68
2022/07/31 10:24:26;;;;;;;2.00;1.03;;;;;;;30.79;28.47;96761.28;2063832;28;20417;-68
2022/07/31 10:25:29;;;;;;;1.77;1.20;;;;;;;30.95;28.63;96757.50;2063534;28;20435;-68
2022/07/31 10:26:32;;;;;;;4.27;1.23;;;;;;;31.46;27.77;96771.78;2064307;28;20475;-69
2022/07/31 10:27:55;;;;;;;4.63;1.00;;;;;;;31.56;27.69;96758.78;2064042;28;20459;-68
2022/07/31 10:28:58;;;;;;;7.70;1.00;;;;;;;31.69;27.42;96769.69;2064307;28;20451;-68
2022/07/31 10:30:00;;;;;;;1.50;1.00;;;;;;;31.65;27.43;96751.38;2063916;28;20436;-68
2022/07/31 10:31:02;;;;;;;1.93;1.17;;;;;;;31.52;27.94;96760.22;2064389;28;20420;-68
2022/07/31 10:32:06;;;;;;;1.93;1.30;;;;;;;31.01;27.91;96748.63;2062769;28;20985;-68
2022/07/31 10:33:08;;;;;;;2.70;1.00;;;;;;;30.78;28.42;96749.69;2064316;28;20440;-68
2022/07/31 10:34:32;;;;;;;4.90;1.23;;;;;;;29.96;29.49;96756.28;2063829;28;20459;-68
2022/07/31 10:35:42;;;;;;;2.30;1.20;;;;;;;29.62;29.54;96758.53;2063961;28;20538;-68
2022/07/31 10:37:02;;;;;;;1.90;1.20;;;;;;;29.08;30.50;96754.19;2063411;28;20784;-67
2022/07/31 10:38:17;;;;;;;1.80;1.03;;;;;;;28.64;31.38;96760.25;2064316;28;20525;-67
2022/07/31 10:39:30;;;;;;;3.97;1.10;;;;;;;29.04;30.83;96754.72;2063811;28;20434;-67
2022/07/31 10:40:34;;;;;;;3.70;1.40;;;;;;;29.44;30.51;96748.13;2063298;28;20440;-67
2022/07/31 10:41:52;;;;;;;11.93;1.53;;;;;;;29.45;30.33;96757.03;2064093;28;20430;-68
2022/07/31 10:43:15;;;;;;;3.23;0.90;;;;;;;29.48;30.43;96753.97;2063978;28;20444;-68
2022/07/31 10:44:30;;;;;;;1.97;1.13;;;;;;;29.59;30.41;96755.38;2063408;28;20504;-68
2022/07/31 10:45:49;;;;;;;1.97;1.10;;;;;;;29.28;30.81;96745.59;2062625;28;20828;-67
2022/07/31 10:46:50;;;;;;;3.20;1.00;;;;;;;29.34;30.82;96761.00;2063225;28;20432;-68
2022/07/31 10:47:57;;;;;;;2.03;1.20;;;;;;;29.42;30.63;96752.00;2062518;28;20444;-67
2022/07/31 10:48:59;;;;;;;1.10;0.70;;;;;;;29.49;30.77;96756.47;2064077;28;20518;-68
2022/07/31 10:50:20;;;;;;;3.30;1.27;;;;;;;29.67;30.12;96749.88;2062948;28;20424;-68
2022/07/31 10:51:22;;;;;;;4.00;1.03;;;;;;;29.56;30.52;96745.81;2064554;28;20951;-68
2022/07/31 10:52:29;;;;;;;2.00;1.10;;;;;;;29.80;30.40;96755.44;2063740;28;20448;-68
2022/07/31 10:53:31;;;;;;;3.53;1.10;;;;;;;29.54;30.63;96749.72;2063963;28;20935;-68
2022/07/31 10:54:53;;;;;;;3.83;1.20;;;;;;;29.09;31.14;96745.13;2063190;28;20818;-67
2022/07/31 10:56:02;;;;;;;1.50;1.00;;;;;;;29.29;30.73;96747.28;2062064;28;20472;-68
2022/07/31 10:57:04;;;;;;;3.47;1.40;;;;;;;29.11;30.78;96744.91;2062432;28;20428;-69
2022/07/31 10:58:15;;;;;;;3.73;0.97;;;;;;;29.23;31.22;96747.97;2061540;28;20506;-69
2022/07/31 10:59:27;;;;;;;1.80;1.00;;;;;;;29.78;30.78;96743.19;2063789;28;20419;-70
2022/07/31 11:00:28;;;;;;;5.50;1.17;;;;;;;29.96;30.75;96740.13;2062437;28;20427;-69
2022/07/31 11:01:30;;;;;;;4.07;1.13;;;;;;;30.33;30.63;96737.41;2064325;28;20441;-69
2022/07/31 11:02:34;;;;;;;5.70;1.30;;;;;;;30.30;29.69;96739.47;2062831;28;20617;-69
2022/07/31 11:03:45;;;;;;;2.23;1.27;;;;;;;29.85;30.08;96736.00;2070682;28;20849;-68
2022/07/31 11:04:46;;;;;;;1.40;1.10;;;;;;;29.86;29.87;96734.19;2069996;28;20427;-70
2022/07/31 11:05:56;;;;;;;2.67;1.10;;;;;;;30.01;29.80;96734.19;2062979;28;20436;-69
2022/07/31 11:07:13;;;;;;;4.43;1.07;;;;;;;29.96;29.40;96726.66;2063177;28;20423;-69
2022/07/31 11:08:15;;;;;;;6.17;1.10;;;;;;;29.89;30.12;96739.19;2063016;28;20432;-69
2022/07/31 11:09:22;;;;;;;5.63;0.90;;;;;;;30.16;29.56;96728.72;2063202;28;20453;-69
2022/07/31 11:10:23;;;;;;;1.50;0.93;;;;;;;30.14;29.37;96728.94;2062587;28;20955;-69
2022/07/31 11:11:32;;;;;;;1.90;0.90;;;;;;;30.49;29.44;96725.56;2063984;28;20788;-69
2022/07/31 11:12:34;;;;;;;3.10;1.17;;;;;;;30.71;29.05;96726.41;2063361;28;20467;-69
2022/07/31 11:13:46;;;;;;;2.70;1.33;;;;;;;30.83;28.96;96722.16;2064029;28;20431;-70
2022/07/31 11:14:47;;;;;;;2.90;1.20;;;;;;;30.72;28.55;96723.53;2063056;28;20896;-69
2022/07/31 11:15:51;;;;;;;2.23;0.90;;;;;;;30.33;29.39;96714.00;2063698;28;20473;-70
2022/07/31 11:16:54;;;;;;;3.00;1.10;;;;;;;29.70;30.41;96725.31;2063164;28;21377;-69
2022/07/31 11:17:56;;;;;;;6.20;1.10;;;;;;;29.51;30.14;96717.78;2071473;28;20435;-70
2022/07/31 11:19:18;;;;;;;2.13;1.10;;;;;;;30.18;29.86;96718.63;2067454;28;20424;-69
2022/07/31 11:20:24;;;;;;;2.03;1.10;;;;;;;29.89;30.53;96720.38;2063802;28;20431;-67
2022/07/31 11:21:37;;;;;;;2.43;1.20;;;;;;;29.20;30.57;96719.63;2063740;28;21043;-67
2022/07/31 11:22:40;;;;;;;2.85;1.00;;;;;;;29.06;31.02;96725.81;2059142;28;21002;-66
2022/07/31 11:23:41;;;;;;;1.90;1.00;;;;;;;29.49;30.46;96712.59;2059369;28;20191;-68
2022/07/31 11:25:03;;;;;;;3.83;0.90;;;;;;;29.61;30.08;96705.75;2061795;28;20210;-68
2022/07/31 11:26:06;;;;;;;1.93;1.03;;;;;;;29.88;29.86;96713.31;2063841;28;20428;-67
2022/07/31 11:27:08;;;;;;;1.85;1.00;;;;;;;30.29;29.09;96716.25;2063260;28;20420;-67
2022/07/31 11:28:23;;;;;;;1.95;1.05;;;;;;;30.07;29.59;96718.09;2063832;28;20561;-67
2022/07/31 11:29:30;;;;;;;4.77;1.10;;;;;;;29.65;30.39;96715.09;2063912;28;20194;-67
2022/07/31 11:30:58;;;;;;;2.70;1.07;;;;;;;30.44;29.57;96718.06;2063103;28;20939;-67
2022/07/31 11:32:03;;;;;;;7.47;1.63;;;;;;;31.15;28.66;96713.69;2062103;28;20502;-67
2022/07/31 11:33:05;;;;;;;3.73;1.60;;;;;;;31.25;28.19;96698.84;2063695;28;20432;-67
2022/07/31 11:34:06;;;;;;;14.20;1.60;;;;;;;31.49;27.83;96703.94;2063836;28;20428;-68
2022/07/31 11:35:08;;;;;;;2.73;0.87;;;;;;;31.56;27.78;96699.41;2063286;28;20486;-67
2022/07/31 11:36:19;;;;;;;1.60;0.83;;;;;;;31.52;27.83;96714.34;2063620;28;20468;-67
2022/07/31 11:37:24;;;;;;;3.33;1.20;;;;;;;31.99;26.97;96710.00;2063026;28;20464;-67
2022/07/31 11:38:30;;;;;;;2.50;1.30;;;;;;;31.54;27.03;96696.94;2063991;28;20436;-70
2022/07/31 11:39:31;;;;;;;2.20;0.83;;;;;;;31.63;27.24;96707.56;2063006;28;20427;-70
2022/07/31 11:40:37;;;;;;;1.40;0.70;;;;;;;31.49;27.65;96709.34;2062618;28;20444;-69
2022/07/31 11:41:41;;;;;;;2.03;0.97;;;;;;;31.58;27.35;96716.25;2063792;28;20519;-69
2022/07/31 11:42:46;;;;;;;2.10;1.20;;;;;;;31.83;27.24;96718.44;2063393;28;20983;-69
2022/07/31 11:44:05;;;;;;;2.27;1.00;;;;;;;31.84;27.53;96710.13;2063260;28;20454;-71
2022/07/31 11:45:08;;;;;;;2.20;1.37;;;;;;;31.02;27.51;96703.63;2065993;28;20495;-71
2022/07/31 11:46:22;;;;;;;66.77;36.37;;;;;;;31.41;27.77;96704.94;2064866;28;20933;-70
2022/07/31 11:47:24;;;;;;;5.17;3.03;;;;;;;31.77;27.28;96708.47;2062855;28;20448;-69
2022/07/31 11:48:45;;;;;;;2.03;1.00;;;;;;;31.88;26.70;96697.94;2062812;28;20837;-69
2022/07/31 11:49:47;;;;;;;2.90;0.90;;;;;;;32.28;26.86;96707.16;2064130;28;20431;-68
2022/07/31 11:50:50;;;;;;;1.63;0.80;;;;;;;31.75;27.12;96695.16;2063839;28;20427;-70
2022/07/31 11:51:59;;;;;;;2.77;1.10;;;;;;;31.83;27.02;96689.56;2062923;28;20440;-69
2022/07/31 11:53:01;;;;;;;1.67;1.20;;;;;;;32.44;26.52;96695.16;2064604;28;20868;-70
2022/07/31 11:54:03;;;;;;;4.90;1.40;;;;;;;32.62;26.08;96697.25;2062751;28;20420;-69
2022/07/31 11:55:07;;;;;;;1.80;1.27;;;;;;;32.81;25.63;96690.19;2061469;28;20967;-71
2022/07/31 11:56:10;;;;;;;2.50;0.90;;;;;;;32.69;26.08;96688.09;2064425;28;20420;-70
2022/07/31 11:57:12;;;;;;;1.87;1.00;;;;;;;32.71;26.10;96687.91;2061315;28;20703;-70
2022/07/31 11:58:15;;;;;;;1.73;0.90;;;;;;;32.15;26.17;96689.91;2063366;28;20424;-70
2022/07/31 11:59:17;;;;;;;2.17;1.20;;;;;;;31.39;27.15;96688.13;2063477;28;20439;-70
2022/07/31 12:00:45;;;;;;;1.53;0.90;;;;;;;31.45;27.27;96684.63;2064000;28;20936;-70
2022/07/31 12:01:46;;;;;;;1.80;1.20;;;;;;;31.95;26.84;96695.25;2063236;28;20431;-70
2022/07/31 12:02:48;;;;;;;9.93;1.20;;;;;;;31.42;26.98;96685.03;2063591;28;21227;-70
2022/07/31 12:03:50;;;;;;;4.87;1.20;;;;;;;31.18;27.50;96689.06;2064413;28;20467;-70
2022/07/31 12:04:52;;;;;;;4.47;1.07;;;;;;;31.01;27.25;96686.63;2064338;28;20432;-70
2022/07/31 12:05:54;;;;;;;2.90;1.03;;;;;;;31.30;27.76;96683.91;2063555;28;20443;-70
2022/07/31 12:06:56;;;;;;;2.10;1.07;;;;;;;31.46;27.07;96688.16;2064315;28;20436;-69
2022/07/31 12:07:58;;;;;;;3.20;1.00;;;;;;;31.95;26.48;96686.28;2064848;28;20432;-73
2022/07/31 12:09:02;;;;;;;3.10;1.30;;;;;;;32.01;26.25;96672.84;2066087;28;20432;-69
2022/07/31 12:10:04;;;;;;;8.27;5.17;;;;;;;31.71;26.30;96670.44;2065134;28;20981;-68
2022/07/31 12:11:08;;;;;;;4.63;2.10;;;;;;;31.14;26.91;96667.03;2064713;28;20519;-68
2022/07/31 12:12:11;;;;;;;3.23;1.90;;;;;;;31.38;26.58;96643.31;2065417;28;20455;-71
2022/07/31 12:13:17;;;;;;;4.00;1.20;;;;;;;31.63;26.45;96659.00;2066743;28;20980;-70
2022/07/31 12:14:34;;;;;;;2.00;0.97;;;;;;;31.64;25.96;96669.59;2066915;28;20431;-71
2022/07/31 12:15:36;;;;;;;2.70;0.80;;;;;;;31.07;26.64;96672.41;2065041;28;20499;-70
2022/07/31 12:16:42;;;;;;;11.73;1.23;;;;;;;31.06;26.95;96659.94;2066061;28;20459;-70
2022/07/31 12:17:45;;;;;;;3.17;1.00;;;;;;;30.87;27.53;96666.03;2063174;28;20464;-67
2022/07/31 12:18:52;;;;;;;1.70;1.03;;;;;;;31.51;27.18;96658.72;2062576;28;20435;-66
2022/07/31 12:20:06;;;;;;;2.37;0.90;;;;;;;31.51;26.66;96670.34;2062820;28;20428;-67
2022/07/31 12:21:08;;;;;;;3.40;0.80;;;;;;;31.10;26.96;96657.69;2063364;28;20458;-67
2022/07/31 12:22:14;;;;;;;3.63;1.40;;;;;;;31.04;27.03;96663.84;2062860;28;20780;-67
2022/07/31 12:23:15;;;;;;;3.70;0.90;;;;;;;30.84;27.24;96678.00;2063036;28;20776;-67
2022/07/31 12:24:38;;;;;;;3.23;0.90;;;;;;;30.75;27.70;96666.56;2062555;28;20424;-67
2022/07/31 12:25:44;;;;;;;2.03;1.00;;;;;;;31.05;26.92;96665.50;2062971;28;20435;-67
2022/07/31 12:26:54;;;;;;;1.93;0.90;;;;;;;31.65;26.38;96665.84;2063580;28;20427;-67
2022/07/31 12:27:56;;;;;;;1.90;1.20;;;;;;;31.64;26.18;96663.38;2062613;28;20444;-72
2022/07/31 12:29:01;;;;;;;1.97;1.00;;;;;;;31.42;25.98;96664.28;2063427;28;20528;-71
2022/07/31 12:30:14;;;;;;;1.10;0.70;;;;;;;31.49;26.08;96656.22;2063352;28;20424;-67
2022/07/31 12:31:15;;;;;;;4.60;0.90;;;;;;;31.95;25.91;96659.28;2062643;28;20428;-67
2022/07/31 12:32:26;;;;;;;1.70;1.00;;;;;;;32.23;25.93;96656.50;2062068;28;20452;-68
2022/07/31 12:33:39;;;;;;;3.97;1.10;;;;;;;31.77;25.73;96666.13;2061902;28;20443;-68
2022/07/31 12:34:41;;;;;;;4.63;0.80;;;;;;;31.73;25.94;96657.59;2063018;28;20464;-68
2022/07/31 12:35:45;;;;;;;3.23;1.00;;;;;;;31.48;26.38;96656.41;2063453;28;20424;-68
2022/07/31 12:36:57;;;;;;;5.80;0.90;;;;;;;31.56;26.12;96653.56;2063003;28;20510;-71
2022/07/31 12:37:59;;;;;;;1.70;1.07;;;;;;;31.27;25.82;96658.19;2070853;28;20962;-70
2022/07/31 12:39:03;;;;;;;2.10;1.00;;;;;;;31.67;25.15;96653.00;2070618;28;20465;-70
2022/07/31 12:40:23;;;;;;;2.03;0.80;;;;;;;32.15;24.91;96660.19;2062691;28;20990;-72
2022/07/31 12:41:25;;;;;;;1.73;1.03;;;;;;;32.61;24.52;96658.59;2063331;28;20424;-67
2022/07/31 12:42:33;;;;;;;3.20;1.00;;;;;;;32.18;24.85;96649.00;2062291;28;20452;-71
2022/07/31 12:43:42;;;;;;;3.17;0.80;;;;;;;31.68;25.63;96640.34;2062737;28;20432;-72
2022/07/31 12:44:55;;;;;;;1.73;1.00;;;;;;;32.01;26.30;96648.53;2063393;28;20428;-70
2022/07/31 12:45:59;;;;;;;1.33;0.93;;;;;;;32.60;25.82;96646.13;2062057;28;20850;-70
2022/07/31 12:47:00;;;;;;;7.77;1.27;;;;;;;33.09;25.65;96643.16;2063087;28;20926;-71
2022/07/31 12:48:03;;;;;;;5.50;1.30;;;;;;;33.57;25.01;96642.81;2063396;28;20455;-70
2022/07/31 12:49:06;;;;;;;1.33;1.03;;;;;;;33.73;24.60;96640.69;2063456;28;20853;-70
2022/07/31 12:50:08;;;;;;;1.77;1.10;;;;;;;33.48;25.33;96644.09;2063388;28;20943;-71
2022/07/31 12:51:10;;;;;;;2.00;1.00;;;;;;;34.38;24.99;96647.84;2070657;28;20427;-71
2022/07/31 12:52:12;;;;;;;3.00;1.10;;;;;;;34.40;24.19;96638.44;2070237;28;20977;-67
2022/07/31 12:53:13;;;;;;;2.20;1.30;;;;;;;33.26;25.85;96648.97;2063403;28;20435;-66
2022/07/31 12:54:16;;;;;;;3.00;1.27;;;;;;;33.46;25.49;96646.19;2063458;28;20424;-66
2022/07/31 12:55:18;;;;;;;1.87;1.00;;;;;;;33.41;25.14;96646.84;2063203;28;20935;-66
2022/07/31 12:56:20;;;;;;;1.80;1.17;;;;;;;33.32;25.47;96642.69;2063205;28;20495;-67
2022/07/31 12:57:21;;;;;;;4.13;1.27;;;;;;;33.52;24.94;96642.63;2062847;28;20471;-67
2022/07/31 12:58:23;;;;;;;2.17;1.00;;;;;;;33.94;24.86;96644.94;2063237;28;20413;-68
2022/07/31 12:59:25;;;;;;;3.47;1.30;;;;;;;34.21;24.70;96640.22;2063312;28;20424;-67